Dingtao, China
Current Conditions -  °F | °C
As of 4:00 AM on Monday 24 Nov 2014 (Local Time) from ZHCC Reporting Station
Haze Haze  
Wind Chill: 42°   Ceiling: Unl
Heat Index: 46°   Visibility: 1.2mi
Dew Point: 41°   Wind: 9mph
Humidity: 81%   Direction: 360°N
Pressure: 30.24"   Gusts: NA
Location:  35.07°N, 115.56°E
Report Text: ZHCC 232000Z 36004MPS 2000 BR NSC 08/05 Q1024 NOSIG
Loading
Personal Weather Stations






























Interactive Weather Map New forecast layout! Learn more

10-Day Weather Forecast

Advertisements
Track Severe Weather on mobile